createdAt,value
2023-01-31T00:01:27.924Z,101471.06
2023-01-31T00:03:56.674Z,101476.44
2023-01-31T00:06:25.986Z,101478.09
2023-01-31T00:08:53.643Z,101467.94
2023-01-31T00:11:22.772Z,101464.06
2023-01-31T00:13:49.816Z,101473.97
2023-01-31T00:16:17.360Z,101471.28
2023-01-31T00:18:44.425Z,101467.56
2023-01-31T00:21:13.222Z,101467.78
2023-01-31T00:23:41.322Z,101454.94
2023-01-31T00:26:13.977Z,101447.94
2023-01-31T00:28:41.409Z,101449.16
2023-01-31T00:31:09.573Z,101453.72
2023-01-31T00:33:38.014Z,101452.25
2023-01-31T00:36:06.930Z,101455.34
2023-01-31T00:38:34.642Z,101458.88
2023-01-31T00:41:01.921Z,101461.38
2023-01-31T00:43:31.885Z,101459.28
2023-01-31T00:45:58.858Z,101469.00
2023-01-31T00:48:25.711Z,101474.78
2023-01-31T00:50:52.429Z,101476.41
2023-01-31T00:53:23.561Z,101485.75
2023-01-31T00:55:54.168Z,101494.00
2023-01-31T00:58:21.784Z,101489.47
2023-01-31T01:00:48.871Z,101486.16
2023-01-31T01:03:15.555Z,101484.69
2023-01-31T01:05:42.015Z,101489.66
2023-01-31T01:08:09.160Z,101486.56
2023-01-31T01:10:36.628Z,101486.16
2023-01-31T01:13:05.514Z,101478.50
2023-01-31T01:15:32.824Z,101484.69
2023-01-31T01:17:59.336Z,101483.25
2023-01-31T01:20:25.753Z,101499.38
2023-01-31T01:22:53.519Z,101490.47
2023-01-31T01:25:20.335Z,101499.19
2023-01-31T01:27:46.968Z,101498.97
2023-01-31T01:30:13.496Z,101507.44
2023-01-31T01:32:39.991Z,101501.22
2023-01-31T01:35:07.922Z,101502.28
2023-01-31T01:37:34.358Z,101500.63
2023-01-31T01:40:00.816Z,101511.97
2023-01-31T01:42:35.260Z,101515.53
2023-01-31T01:45:04.598Z,101512.84
2023-01-31T01:47:42.583Z,101529.56
2023-01-31T01:50:32.765Z,101536.81
2023-01-31T01:53:08.477Z,101533.28
2023-01-31T01:55:42.903Z,101517.59
2023-01-31T01:58:13.787Z,101524.19
2023-01-31T02:00:42.577Z,101525.22
2023-01-31T02:03:09.560Z,101532.47
2023-01-31T02:05:52.842Z,101535.97
2023-01-31T02:08:23.243Z,101529.78
2023-01-31T02:11:15.643Z,101527.69
2023-01-31T02:13:43.477Z,101533.72
2023-01-31T02:16:14.468Z,101534.75
2023-01-31T02:18:42.254Z,101528.97
2023-01-31T02:21:46.638Z,101522.53
2023-01-31T02:25:06.230Z,101528.75
2023-01-31T02:28:06.467Z,101532.47
2023-01-31T02:31:09.448Z,101540.94
2023-01-31T02:34:12.445Z,101529.38
2023-01-31T02:36:48.109Z,101535.16
2023-01-31T02:39:39.001Z,101537.44
2023-01-31T02:42:19.377Z,101542.19
2023-01-31T02:45:05.402Z,101541.13
2023-01-31T02:47:53.053Z,101552.09
2023-01-31T02:50:47.363Z,101558.94
2023-01-31T02:53:30.054Z,101557.66
2023-01-31T02:56:15.247Z,101567.41
2023-01-31T02:58:48.275Z,101556.44
2023-01-31T03:01:20.750Z,101561.63
2023-01-31T03:03:47.345Z,101552.72
2023-01-31T03:06:25.528Z,101546.50
2023-01-31T03:09:04.432Z,101546.91
2023-01-31T03:11:44.636Z,101540.09
2023-01-31T03:14:27.289Z,101547.97
2023-01-31T03:17:19.308Z,101531.25
2023-01-31T03:19:54.835Z,101531.22
2023-01-31T03:22:27.301Z,101528.34
2023-01-31T03:24:55.553Z,101516.94
2023-01-31T03:27:22.999Z,101509.09
2023-01-31T03:30:00.763Z,101516.13
2023-01-31T03:32:33.546Z,101511.16
2023-01-31T03:35:00.215Z,101503.31
2023-01-31T03:37:31.260Z,101501.47
2023-01-31T03:40:21.464Z,101505.78
2023-01-31T03:42:57.630Z,101500.22
2023-01-31T03:45:50.620Z,101514.25
2023-01-31T03:48:22.679Z,101513.03
2023-01-31T03:51:09.544Z,101513.22
2023-01-31T03:53:46.504Z,101513.66
2023-01-31T03:56:21.568Z,101518.19
2023-01-31T03:58:53.696Z,101509.28
2023-01-31T04:01:25.958Z,101503.09
2023-01-31T04:03:57.964Z,101503.91
2023-01-31T04:06:24.881Z,101507.66
2023-01-31T04:08:51.356Z,101488.84
2023-01-31T04:11:21.728Z,101495.25
2023-01-31T04:13:48.220Z,101496.91
2023-01-31T04:16:14.930Z,101495.84
2023-01-31T04:18:41.364Z,101496.50
2023-01-31T04:21:07.833Z,101505.16
2023-01-31T04:23:34.235Z,101500.19
2023-01-31T04:26:00.812Z,101499.19
2023-01-31T04:28:27.317Z,101497.72
2023-01-31T04:30:55.829Z,101488.03
2023-01-31T04:33:23.026Z,101493.38
2023-01-31T04:35:51.645Z,101502.84
2023-01-31T04:38:18.132Z,101496.47
2023-01-31T04:40:44.768Z,101507.59
2023-01-31T04:43:12.119Z,101512.13
2023-01-31T04:45:38.552Z,101499.72
2023-01-31T04:48:05.443Z,101506.75
2023-01-31T04:50:31.928Z,101524.69
2023-01-31T04:52:58.325Z,101517.22
2023-01-31T04:55:24.768Z,101525.09
2023-01-31T04:57:51.170Z,101514.56
2023-01-31T05:00:18.222Z,101501.16
2023-01-31T05:02:44.970Z,101515.19
2023-01-31T05:05:12.865Z,101504.22
2023-01-31T05:07:39.730Z,101508.34
2023-01-31T05:10:06.826Z,101501.13
2023-01-31T05:12:33.244Z,101499.28
2023-01-31T05:14:59.628Z,101497.63
2023-01-31T05:17:26.263Z,101505.03
2023-01-31T05:19:52.817Z,101484.78
2023-01-31T05:22:22.485Z,101487.50
2023-01-31T05:24:50.336Z,101489.56
2023-01-31T05:27:17.573Z,101485.25
2023-01-31T05:29:44.384Z,101490.63
2023-01-31T05:32:11.478Z,101491.03
2023-01-31T05:34:38.500Z,101486.31
2023-01-31T05:37:05.087Z,101496.66
2023-01-31T05:39:32.290Z,101479.69
2023-01-31T05:41:58.921Z,101497.47
2023-01-31T05:44:25.451Z,101480.75
2023-01-31T05:46:51.853Z,101485.28
2023-01-31T05:49:18.288Z,101478.06
2023-01-31T05:51:44.681Z,101478.88
2023-01-31T05:54:11.791Z,101476.41
2023-01-31T05:56:39.126Z,101462.78
2023-01-31T05:59:06.157Z,101467.97
2023-01-31T06:01:32.611Z,101464.47
2023-01-31T06:03:59.523Z,101453.50
2023-01-31T06:06:25.982Z,101453.50
2023-01-31T06:08:52.430Z,101449.97
2023-01-31T06:11:18.841Z,101448.16
2023-01-31T06:13:45.260Z,101448.16
2023-01-31T06:16:12.443Z,101452.66
2023-01-31T06:18:39.237Z,101447.31
2023-01-31T06:21:06.196Z,101447.94
2023-01-31T06:23:34.419Z,101456.41
2023-01-31T06:26:02.744Z,101446.47
2023-01-31T06:28:29.225Z,101457.63
2023-01-31T06:30:55.790Z,101454.34
2023-01-31T06:33:31.491Z,101461.38
2023-01-31T06:36:05.322Z,101457.84
2023-01-31T06:38:32.022Z,101454.34
2023-01-31T06:40:58.544Z,101448.34
2023-01-31T06:43:25.012Z,101444.00
2023-01-31T06:45:52.598Z,101445.03
2023-01-31T06:48:21.082Z,101452.25
2023-01-31T06:50:48.213Z,101443.59
2023-01-31T06:53:14.624Z,101435.72
2023-01-31T06:55:48.097Z,101446.66
2023-01-31T06:58:14.530Z,101432.22
2023-01-31T07:00:40.977Z,101430.13
2023-01-31T07:03:07.423Z,101416.50
2023-01-31T07:05:33.818Z,101427.44
2023-01-31T07:08:00.354Z,101408.22
2023-01-31T07:10:26.796Z,101399.13
2023-01-31T07:12:53.380Z,101395.41
2023-01-31T07:15:20.134Z,101392.91
2023-01-31T07:17:46.691Z,101387.31
2023-01-31T07:20:13.260Z,101395.41
2023-01-31T07:22:39.681Z,101386.09
2023-01-31T07:25:06.424Z,101378.44
2023-01-31T07:27:32.822Z,101367.31
2023-01-31T07:29:59.290Z,101376.38
2023-01-31T07:32:30.051Z,101372.66
2023-01-31T07:34:56.526Z,101360.47
2023-01-31T07:37:22.941Z,101355.47
2023-01-31T07:39:50.823Z,101346.59
2023-01-31T07:42:17.232Z,101341.00
2023-01-31T07:44:43.686Z,101352.16
2023-01-31T07:47:10.071Z,101346.38
2023-01-31T07:49:41.084Z,101343.47
2023-01-31T07:52:08.587Z,101353.97
2023-01-31T07:54:35.748Z,101356.47
2023-01-31T07:57:04.852Z,101351.63
2023-01-31T07:59:31.931Z,101336.56
2023-01-31T08:02:17.010Z,101340.31
2023-01-31T08:04:43.521Z,101324.31
2023-01-31T08:07:10.204Z,101319.34
2023-01-31T08:09:36.742Z,101314.31
2023-01-31T08:12:03.427Z,101303.50
2023-01-31T08:14:31.019Z,101309.91
2023-01-31T08:16:57.546Z,101307.63
2023-01-31T08:19:23.941Z,101307.00
2023-01-31T08:21:50.386Z,101293.72
2023-01-31T08:24:16.792Z,101288.97
2023-01-31T08:26:43.910Z,101300.13
2023-01-31T08:29:10.834Z,101293.47
2023-01-31T08:31:37.427Z,101280.84
2023-01-31T08:34:04.272Z,101283.50
2023-01-31T08:36:31.897Z,101285.50
2023-01-31T08:38:58.821Z,101278.72
2023-01-31T08:41:26.614Z,101279.75
2023-01-31T08:43:57.973Z,101290.28
2023-01-31T08:46:27.591Z,101273.94
2023-01-31T08:48:54.506Z,101278.06
2023-01-31T08:51:21.548Z,101275.16
2023-01-31T08:53:49.096Z,101266.66
2023-01-31T08:56:16.037Z,101278.88
2023-01-31T08:58:44.185Z,101272.84
2023-01-31T09:01:13.356Z,101254.22
2023-01-31T09:03:40.236Z,101271.63
2023-01-31T09:06:10.590Z,101266.63
2023-01-31T09:08:36.979Z,101264.44
2023-01-31T09:11:05.289Z,101256.97
2023-01-31T09:13:32.357Z,101234.50
2023-01-31T09:16:00.831Z,101249.38
2023-01-31T09:18:27.647Z,101250.84
2023-01-31T09:20:54.094Z,101248.41
2023-01-31T09:23:20.784Z,101239.06
2023-01-31T09:25:56.917Z,101236.03
2023-01-31T09:28:24.163Z,101240.19
2023-01-31T09:30:53.460Z,101231.91
2023-01-31T09:33:21.332Z,101222.41
2023-01-31T09:35:59.042Z,101222.41
2023-01-31T09:38:25.815Z,101226.63
2023-01-31T09:40:53.780Z,101215.03
2023-01-31T09:43:24.836Z,101218.31
2023-01-31T09:45:55.827Z,101201.81
2023-01-31T09:48:27.146Z,101199.13
2023-01-31T09:50:56.103Z,101186.69
2023-01-31T09:53:28.246Z,101171.78
2023-01-31T09:56:04.173Z,101171.97
2023-01-31T09:58:42.097Z,101188.31
2023-01-31T10:01:20.712Z,101175.94
2023-01-31T10:04:05.542Z,101177.72
2023-01-31T10:06:41.426Z,101174.06
2023-01-31T10:09:15.027Z,101182.72
2023-01-31T10:11:52.404Z,101180.63
2023-01-31T10:14:31.700Z,101161.13
2023-01-31T10:17:13.247Z,101164.88
2023-01-31T10:19:45.339Z,101159.06
2023-01-31T10:22:19.230Z,101149.72
2023-01-31T10:24:55.718Z,101143.69
2023-01-31T10:27:43.781Z,101139.72
2023-01-31T10:30:44.070Z,101137.41
2023-01-31T10:33:26.901Z,101132.41
2023-01-31T10:35:56.659Z,101147.13
2023-01-31T10:38:32.291Z,101130.78
2023-01-31T10:41:25.452Z,101121.81
2023-01-31T10:44:02.605Z,101122.84
2023-01-31T10:46:29.155Z,101111.44
2023-01-31T10:48:55.694Z,101106.63
2023-01-31T10:51:34.085Z,101097.81
2023-01-31T10:54:41.983Z,101083.31
2023-01-31T10:57:08.636Z,101094.22
2023-01-31T10:59:38.723Z,101090.13
2023-01-31T11:02:15.495Z,101081.13
2023-01-31T11:04:43.074Z,101080.69
2023-01-31T11:07:10.311Z,101081.91
2023-01-31T11:09:46.942Z,101066.34
2023-01-31T11:12:14.227Z,101052.44
2023-01-31T11:14:40.627Z,101060.50
2023-01-31T11:17:20.597Z,101062.91
2023-01-31T11:19:55.909Z,101061.47
2023-01-31T11:22:29.367Z,101066.84
2023-01-31T11:24:58.168Z,101060.66
2023-01-31T11:27:56.258Z,101052.13
2023-01-31T11:30:35.007Z,101050.47
2023-01-31T11:33:04.048Z,101060.44
2023-01-31T11:35:35.043Z,101059.63
2023-01-31T11:38:22.096Z,101041.66
2023-01-31T11:40:48.642Z,101043.22
2023-01-31T11:43:21.157Z,101036.19
2023-01-31T11:45:56.667Z,101027.31
2023-01-31T11:48:26.429Z,101016.28
2023-01-31T11:50:56.288Z,101018.03
2023-01-31T11:53:26.821Z,101010.75
2023-01-31T11:55:57.378Z,101003.66
2023-01-31T11:58:34.263Z,100992.22
2023-01-31T12:01:02.567Z,101003.34
2023-01-31T12:03:30.605Z,100989.66
2023-01-31T12:06:08.069Z,100990.03
2023-01-31T12:08:37.613Z,100991.78
2023-01-31T12:11:20.855Z,100997.03
2023-01-31T12:13:48.645Z,100985.59
2023-01-31T12:16:22.472Z,100986.75
2023-01-31T12:19:07.272Z,100983.56
2023-01-31T12:21:57.796Z,100971.31
2023-01-31T12:24:40.524Z,100979.75
2023-01-31T12:27:16.716Z,100984.06
2023-01-31T12:29:58.738Z,100979.72
2023-01-31T12:33:09.363Z,100980.97
2023-01-31T12:35:49.602Z,100990.47
2023-01-31T12:38:22.137Z,100990.94
2023-01-31T12:41:02.288Z,100988.97
2023-01-31T12:43:47.363Z,100997.75
2023-01-31T12:46:19.690Z,100996.09
2023-01-31T12:49:00.977Z,100988.09
2023-01-31T12:51:42.134Z,101005.78
2023-01-31T12:54:30.972Z,100990.88
2023-01-31T12:57:23.344Z,100992.91
2023-01-31T13:00:15.424Z,101003.56
2023-01-31T13:03:23.986Z,100997.84
2023-01-31T13:05:53.705Z,100991.03
2023-01-31T13:08:25.366Z,100987.97
2023-01-31T13:11:13.530Z,100998.88
2023-01-31T13:13:49.689Z,100996.41
2023-01-31T13:16:39.489Z,100992.75
2023-01-31T13:19:31.269Z,100991.09
2023-01-31T13:22:01.118Z,100981.00
2023-01-31T13:24:35.969Z,100992.16
2023-01-31T13:27:10.353Z,100988.28
2023-01-31T13:29:44.437Z,100987.97
2023-01-31T13:32:27.200Z,100979.16
2023-01-31T13:35:35.199Z,100982.91
2023-01-31T13:38:07.931Z,100975.63
2023-01-31T13:40:48.197Z,100976.38
2023-01-31T13:43:16.593Z,100974.16
2023-01-31T13:45:52.724Z,100962.22
2023-01-31T13:48:19.163Z,100968.81
2023-01-31T13:50:54.023Z,100961.75
2023-01-31T13:53:43.084Z,100948.88
2023-01-31T13:56:17.004Z,100952.41
2023-01-31T13:58:43.979Z,100952.09
2023-01-31T14:01:21.095Z,100955.03
2023-01-31T14:04:15.419Z,100951.13
2023-01-31T14:06:53.849Z,100940.59
2023-01-31T14:09:33.288Z,100943.50
2023-01-31T14:12:02.166Z,100938.28
2023-01-31T14:14:38.742Z,100937.09
2023-01-31T14:17:09.752Z,100930.91
2023-01-31T14:19:48.979Z,100938.41
2023-01-31T14:22:26.745Z,100932.91
2023-01-31T14:24:56.561Z,100930.34
2023-01-31T14:27:26.356Z,100944.31
2023-01-31T14:30:08.326Z,100932.72
2023-01-31T14:32:45.448Z,100919.47
2023-01-31T14:35:34.835Z,100920.19
2023-01-31T14:38:28.008Z,100929.53
2023-01-31T14:41:14.152Z,100937.16
2023-01-31T14:44:11.701Z,100927.22
2023-01-31T14:46:47.355Z,100933.78
2023-01-31T14:49:51.508Z,100924.88
2023-01-31T14:52:28.475Z,100938.00
2023-01-31T14:55:08.383Z,100942.34
2023-01-31T14:57:45.192Z,100934.38
2023-01-31T15:00:14.567Z,100940.38
2023-01-31T15:02:49.813Z,100928.63
2023-01-31T15:05:23.085Z,100927.81
2023-01-31T15:08:11.184Z,100932.28
2023-01-31T15:11:02.059Z,100918.69
2023-01-31T15:13:42.608Z,100929.81
2023-01-31T15:16:19.619Z,100935.56
2023-01-31T15:18:52.887Z,100935.78
2023-01-31T15:21:27.788Z,100928.03
2023-01-31T15:23:59.406Z,100936.59
2023-01-31T15:26:32.711Z,100925.47
2023-01-31T15:29:01.604Z,100935.44
2023-01-31T15:31:36.951Z,100934.50
2023-01-31T15:34:14.791Z,100929.91
2023-01-31T15:37:01.920Z,100913.84
2023-01-31T15:39:42.093Z,100904.59
2023-01-31T15:42:28.946Z,100919.25
2023-01-31T15:45:16.941Z,100906.44
2023-01-31T15:47:53.921Z,100902.59
2023-01-31T15:50:22.098Z,100913.72
2023-01-31T15:52:48.601Z,100916.53
2023-01-31T15:55:17.789Z,100923.81
2023-01-31T15:57:57.750Z,100921.69
2023-01-31T16:00:26.614Z,100917.69
2023-01-31T16:03:02.767Z,100922.84
2023-01-31T16:05:32.780Z,100919.91
2023-01-31T16:08:01.555Z,100936.69
2023-01-31T16:10:29.943Z,100922.97
2023-01-31T16:12:58.865Z,100935.16
2023-01-31T16:15:28.312Z,100928.09
2023-01-31T16:17:58.224Z,100947.13
2023-01-31T16:20:42.801Z,100991.53
2023-01-31T16:23:33.299Z,100999.31
2023-01-31T16:26:05.253Z,100977.47
2023-01-31T16:28:46.961Z,100955.56
2023-01-31T16:31:17.072Z,100955.81
2023-01-31T16:33:50.989Z,100965.31
2023-01-31T16:36:24.307Z,100954.88
2023-01-31T16:39:29.327Z,100973.53
2023-01-31T16:41:58.312Z,100953.72
2023-01-31T16:44:29.562Z,100958.03
2023-01-31T16:46:56.069Z,100959.22
2023-01-31T16:49:28.401Z,100964.03
2023-01-31T16:52:16.120Z,100962.03
2023-01-31T16:54:50.826Z,100987.69
2023-01-31T16:57:38.100Z,100980.91
2023-01-31T17:00:27.449Z,100994.16
2023-01-31T17:02:56.566Z,100993.22
2023-01-31T17:05:39.387Z,100986.88
2023-01-31T17:08:11.224Z,100977.63
2023-01-31T17:10:39.606Z,100962.25
2023-01-31T17:13:14.277Z,100978.44
2023-01-31T17:15:41.434Z,100974.44
2023-01-31T17:18:10.903Z,100965.44
2023-01-31T17:20:40.976Z,100965.53
2023-01-31T17:23:07.506Z,100970.47
2023-01-31T17:25:36.679Z,100959.00
2023-01-31T17:28:04.521Z,100967.19
2023-01-31T17:30:32.320Z,100977.63
2023-01-31T17:32:59.571Z,100969.75
2023-01-31T17:35:38.604Z,100974.19
2023-01-31T17:38:05.602Z,100961.53
2023-01-31T17:40:32.533Z,100976.41
2023-01-31T17:43:04.723Z,100975.69
2023-01-31T17:45:32.346Z,100967.94
2023-01-31T17:47:58.944Z,100961.50
2023-01-31T17:50:27.498Z,100961.53
2023-01-31T17:52:54.839Z,100965.75
2023-01-31T17:55:23.946Z,100977.94
2023-01-31T17:57:50.729Z,100988.41
2023-01-31T18:00:18.934Z,100982.44
2023-01-31T18:02:45.842Z,100997.19
2023-01-31T18:05:18.641Z,100982.56
2023-01-31T18:07:49.798Z,100981.13
2023-01-31T18:10:16.515Z,100968.34
2023-01-31T18:12:42.978Z,100970.94
2023-01-31T18:15:10.379Z,100985.97
2023-01-31T18:17:37.065Z,100987.97
2023-01-31T18:20:03.824Z,100993.22
2023-01-31T18:22:30.207Z,100998.88
2023-01-31T18:24:56.687Z,101008.81
2023-01-31T18:27:23.233Z,101011.03
2023-01-31T18:29:49.709Z,101015.41
2023-01-31T18:32:17.939Z,101011.50
2023-01-31T18:34:45.579Z,101002.84
2023-01-31T18:37:19.202Z,100996.06
2023-01-31T18:39:50.164Z,100998.97
2023-01-31T18:42:16.956Z,101009.03
2023-01-31T18:44:44.874Z,100999.31
2023-01-31T18:47:12.131Z,100997.78
2023-01-31T18:49:38.598Z,101001.06
2023-01-31T18:52:06.578Z,100999.09
2023-01-31T18:54:33.976Z,101017.00
2023-01-31T18:57:00.456Z,101012.34
2023-01-31T18:59:27.915Z,101011.28
2023-01-31T19:01:54.555Z,101005.66
2023-01-31T19:04:21.190Z,101018.31
2023-01-31T19:06:51.356Z,101013.63
2023-01-31T19:09:18.224Z,101019.25
2023-01-31T19:11:45.152Z,101024.53
2023-01-31T19:14:13.421Z,101029.81
2023-01-31T19:16:41.554Z,101040.00
2023-01-31T19:19:09.335Z,101035.66
2023-01-31T19:21:36.762Z,101056.31
2023-01-31T19:24:09.860Z,101044.44
2023-01-31T19:26:36.800Z,101039.66
2023-01-31T19:29:04.169Z,101052.53
2023-01-31T19:31:31.779Z,101053.38
2023-01-31T19:34:02.003Z,101046.31
2023-01-31T19:36:31.306Z,101055.34
2023-01-31T19:38:59.195Z,101062.50
2023-01-31T19:41:27.014Z,101053.94
2023-01-31T19:43:55.723Z,101058.63
2023-01-31T19:46:24.192Z,101060.94
2023-01-31T19:48:50.811Z,101067.41
2023-01-31T19:51:19.131Z,101063.63
2023-01-31T19:53:46.667Z,101075.09
2023-01-31T19:56:14.115Z,101071.22
2023-01-31T19:58:40.883Z,101068.84
2023-01-31T20:01:12.903Z,101075.06
2023-01-31T20:03:39.405Z,101078.44
2023-01-31T20:06:07.950Z,101075.84
2023-01-31T20:08:35.805Z,101077.56
2023-01-31T20:11:03.903Z,101088.34
2023-01-31T20:13:30.318Z,101071.94
2023-01-31T20:16:15.398Z,101079.06
2023-01-31T20:18:42.218Z,101076.53
2023-01-31T20:21:16.520Z,101071.22
2023-01-31T20:23:43.531Z,101077.06
2023-01-31T20:26:11.759Z,101076.44
2023-01-31T20:28:38.311Z,101081.59
2023-01-31T20:31:09.632Z,101089.75
2023-01-31T20:33:37.111Z,101084.69
2023-01-31T20:36:04.514Z,101075.09
2023-01-31T20:38:31.061Z,101070.78
2023-01-31T20:40:57.673Z,101072.13
2023-01-31T20:43:25.913Z,101066.88
2023-01-31T20:45:53.044Z,101073.09
2023-01-31T20:48:20.341Z,101070.41
2023-01-31T20:50:57.601Z,101065.94
2023-01-31T20:53:24.571Z,101064.19
2023-01-31T20:56:10.372Z,101054.47
2023-01-31T20:58:38.821Z,101053.88
2023-01-31T21:01:06.899Z,101064.28
2023-01-31T21:03:35.177Z,101065.94
2023-01-31T21:06:04.538Z,101064.88
2023-01-31T21:08:35.841Z,101063.75
2023-01-31T21:11:06.763Z,101066.47
2023-01-31T21:13:33.242Z,101073.13
2023-01-31T21:16:03.427Z,101067.44
2023-01-31T21:18:32.204Z,101065.06
2023-01-31T21:20:59.254Z,101075.59
2023-01-31T21:23:25.637Z,101066.00
2023-01-31T21:25:52.213Z,101080.38
2023-01-31T21:28:18.611Z,101072.16
2023-01-31T21:30:45.124Z,101071.25
2023-01-31T21:33:11.586Z,101082.25
2023-01-31T21:35:38.176Z,101059.06
2023-01-31T21:38:04.601Z,101066.63
2023-01-31T21:40:31.108Z,101069.00
2023-01-31T21:42:57.533Z,101067.53
2023-01-31T21:45:39.530Z,101070.22
2023-01-31T21:48:29.221Z,101064.28
2023-01-31T21:50:56.584Z,101062.44
2023-01-31T21:53:23.078Z,101061.81
2023-01-31T21:55:49.500Z,101054.81
2023-01-31T21:58:16.261Z,101053.97
2023-01-31T22:00:43.943Z,101052.03
2023-01-31T22:03:11.370Z,101059.13
2023-01-31T22:05:38.038Z,101046.53
2023-01-31T22:08:04.687Z,101060.13
2023-01-31T22:10:31.185Z,101063.25
2023-01-31T22:12:58.193Z,101072.28
2023-01-31T22:15:25.096Z,101061.75
2023-01-31T22:17:52.587Z,101061.38
2023-01-31T22:20:19.414Z,101064.38
2023-01-31T22:22:46.994Z,101062.22
2023-01-31T22:25:13.687Z,101054.38
2023-01-31T22:27:40.079Z,101082.91
2023-01-31T22:30:16.110Z,101049.94
2023-01-31T22:32:43.254Z,101059.13
2023-01-31T22:35:09.908Z,101051.69
2023-01-31T22:37:36.496Z,101047.91
2023-01-31T22:40:05.063Z,101059.97
2023-01-31T22:42:31.449Z,101049.34
2023-01-31T22:44:57.979Z,101049.34
2023-01-31T22:47:25.091Z,101049.81
2023-01-31T22:49:51.697Z,101055.25
2023-01-31T22:52:18.164Z,101053.03
2023-01-31T22:54:44.991Z,101051.13
2023-01-31T22:57:11.399Z,101055.13
2023-01-31T22:59:37.964Z,101060.44
2023-01-31T23:02:07.317Z,101062.91
2023-01-31T23:04:34.244Z,101072.75
2023-01-31T23:07:00.688Z,101066.91
2023-01-31T23:09:27.115Z,101070.75
2023-01-31T23:11:53.610Z,101068.56
2023-01-31T23:14:20.118Z,101049.25
2023-01-31T23:17:04.962Z,101047.25
2023-01-31T23:19:31.539Z,101056.59
2023-01-31T23:21:57.992Z,101051.69
2023-01-31T23:24:24.611Z,101056.59
2023-01-31T23:26:51.172Z,101049.56
2023-01-31T23:29:17.672Z,101040.81
2023-01-31T23:31:44.318Z,101045.97
2023-01-31T23:34:10.783Z,101028.47
2023-01-31T23:36:37.241Z,101036.69
2023-01-31T23:39:04.868Z,101033.78
2023-01-31T23:41:31.309Z,101044.88
2023-01-31T23:43:57.833Z,101030.72
2023-01-31T23:46:24.328Z,101034.53
2023-01-31T23:48:50.892Z,101027.59
2023-01-31T23:51:17.276Z,101029.56
2023-01-31T23:53:43.723Z,101019.16
2023-01-31T23:56:10.175Z,101022.72
2023-01-31T23:58:36.804Z,101017.72
